createdAt,value
2023-05-20T00:01:50.961Z,76955.75
2023-05-20T00:04:18.459Z,76953.75
2023-05-20T00:06:45.993Z,76953.75
2023-05-20T00:09:13.260Z,76953.75
2023-05-20T00:11:40.817Z,76961.84
2023-05-20T00:14:08.387Z,76969.94
2023-05-20T00:16:38.068Z,76961.84
2023-05-20T00:19:05.451Z,76965.91
2023-05-20T00:21:33.954Z,76963.88
2023-05-20T00:24:01.859Z,76961.84
2023-05-20T00:26:29.652Z,76969.94
2023-05-20T00:28:58.167Z,76963.88
2023-05-20T00:31:25.572Z,76965.91
2023-05-20T00:33:52.979Z,76963.88
2023-05-20T00:36:20.212Z,76982.13
2023-05-20T00:38:48.723Z,76974.00
2023-05-20T00:41:17.038Z,76974.00
2023-05-20T00:43:44.203Z,76986.16
2023-05-20T00:46:11.513Z,76982.13
2023-05-20T00:48:41.802Z,76994.28
2023-05-20T00:51:10.444Z,76994.28
2023-05-20T00:53:38.539Z,76994.28
2023-05-20T00:56:06.436Z,76994.28
2023-05-20T00:58:36.741Z,77002.41
2023-05-20T01:01:06.225Z,77006.44
2023-05-20T01:03:33.780Z,77010.50
2023-05-20T01:06:01.293Z,77014.56
2023-05-20T01:08:29.070Z,77020.63
2023-05-20T01:11:06.550Z,77026.72
2023-05-20T01:13:50.767Z,77022.66
2023-05-20T01:16:18.662Z,77022.66
2023-05-20T01:18:48.806Z,77020.63
2023-05-20T01:21:17.447Z,77026.72
2023-05-20T01:23:45.207Z,77030.78
2023-05-20T01:26:15.282Z,77030.78
2023-05-20T01:28:46.072Z,77038.88
2023-05-20T01:31:19.146Z,77034.84
2023-05-20T01:33:52.150Z,77040.91
2023-05-20T01:36:21.661Z,77042.94
2023-05-20T01:38:51.060Z,77038.88
2023-05-20T01:41:19.127Z,77038.88
2023-05-20T01:43:46.875Z,77042.94
2023-05-20T01:46:15.859Z,77038.88
2023-05-20T01:48:43.230Z,77034.84
2023-05-20T01:51:10.312Z,77034.84
2023-05-20T01:53:37.996Z,77047.00
2023-05-20T01:56:06.228Z,77038.88
2023-05-20T01:58:33.928Z,77038.88
2023-05-20T02:01:01.778Z,77036.84
2023-05-20T02:03:29.408Z,77030.78
2023-05-20T02:05:56.551Z,77030.78
2023-05-20T02:08:24.177Z,77038.88
2023-05-20T02:10:51.455Z,77030.78
2023-05-20T02:13:18.892Z,77038.88
2023-05-20T02:15:45.942Z,77044.97
2023-05-20T02:18:14.239Z,77042.94
2023-05-20T02:20:42.752Z,77047.00
2023-05-20T02:23:10.172Z,77042.94
2023-05-20T02:25:37.154Z,77042.94
2023-05-20T02:28:06.052Z,77042.94
2023-05-20T02:30:33.132Z,77038.88
2023-05-20T02:33:00.739Z,77042.94
2023-05-20T02:35:27.849Z,77038.88
2023-05-20T02:37:55.567Z,77042.94
2023-05-20T02:40:23.042Z,77042.94
2023-05-20T02:42:50.818Z,77067.28
2023-05-20T02:45:17.954Z,77044.97
2023-05-20T02:47:46.450Z,77042.94
2023-05-20T02:50:13.427Z,77040.91
2023-05-20T02:52:42.753Z,77047.00
2023-05-20T02:55:10.144Z,77042.94
2023-05-20T02:57:38.529Z,77038.88
2023-05-20T03:00:11.836Z,77036.84
2023-05-20T03:02:39.856Z,77038.88
2023-05-20T03:05:08.226Z,77036.84
2023-05-20T03:07:36.715Z,77034.84
2023-05-20T03:10:07.206Z,77034.84
2023-05-20T03:12:34.596Z,77042.94
2023-05-20T03:15:01.590Z,77040.91
2023-05-20T03:17:29.436Z,77032.81
2023-05-20T03:19:57.281Z,77032.81
2023-05-20T03:22:25.461Z,77030.78
2023-05-20T03:24:53.161Z,77026.72
2023-05-20T03:27:21.491Z,77026.72
2023-05-20T03:29:48.925Z,77022.66
2023-05-20T03:32:16.942Z,77020.63
2023-05-20T03:34:44.289Z,77010.50
2023-05-20T03:37:11.739Z,77006.44
2023-05-20T03:39:39.582Z,77002.41
2023-05-20T03:42:07.887Z,76998.34
2023-05-20T03:44:35.404Z,76990.22
2023-05-20T03:47:03.658Z,76990.22
2023-05-20T03:49:31.955Z,76982.13
2023-05-20T03:51:59.626Z,76982.13
2023-05-20T03:54:26.717Z,76971.97
2023-05-20T03:56:55.103Z,76965.91
2023-05-20T03:59:22.442Z,76957.78
2023-05-20T04:01:49.774Z,76949.69
2023-05-20T04:04:17.592Z,76945.63
2023-05-20T04:06:45.120Z,76935.50
2023-05-20T04:09:12.104Z,76925.34
2023-05-20T04:11:39.412Z,76917.25
2023-05-20T04:14:06.939Z,76905.09
2023-05-20T04:16:34.399Z,76896.97
2023-05-20T04:19:02.795Z,76884.81
2023-05-20T04:21:31.722Z,76876.69
2023-05-20T04:23:59.097Z,76872.66
2023-05-20T04:26:26.452Z,76874.66
2023-05-20T04:28:54.000Z,76876.69
2023-05-20T04:31:27.011Z,76872.66
2023-05-20T04:33:54.683Z,76884.81
2023-05-20T04:36:28.622Z,76872.66
2023-05-20T04:38:57.298Z,76864.53
2023-05-20T04:41:24.958Z,76856.44
2023-05-20T04:43:52.108Z,76840.22
2023-05-20T04:46:20.573Z,76836.16
2023-05-20T04:48:48.129Z,76824.00
2023-05-20T04:51:16.303Z,76815.88
2023-05-20T04:53:46.038Z,76811.81
2023-05-20T04:56:15.373Z,76803.72
2023-05-20T04:58:43.212Z,76783.44
2023-05-20T05:01:10.988Z,76783.44
2023-05-20T05:03:37.931Z,76775.34
2023-05-20T05:06:05.179Z,76771.28
2023-05-20T05:08:32.363Z,76767.22
2023-05-20T05:11:00.032Z,76763.16
2023-05-20T05:13:27.181Z,76746.97
2023-05-20T05:16:02.481Z,76736.81
2023-05-20T05:18:31.724Z,76722.63
2023-05-20T05:21:04.134Z,76710.47
2023-05-20T05:23:32.985Z,76678.03
2023-05-20T05:26:00.590Z,76669.94
2023-05-20T05:28:27.979Z,76649.66
2023-05-20T05:30:59.036Z,76645.59
2023-05-20T05:33:26.899Z,76629.38
2023-05-20T05:35:54.750Z,76613.16
2023-05-20T05:38:21.980Z,76588.84
2023-05-20T05:40:49.220Z,76588.84
2023-05-20T05:43:17.381Z,76580.72
2023-05-20T05:45:47.536Z,76576.69
2023-05-20T05:48:15.200Z,76572.63
2023-05-20T05:50:47.028Z,76580.72
2023-05-20T05:53:16.417Z,76572.63
2023-05-20T05:55:47.421Z,76564.50
2023-05-20T05:58:15.773Z,76548.31
2023-05-20T06:00:43.534Z,76523.97
2023-05-20T06:03:11.311Z,76519.91
2023-05-20T06:05:38.722Z,76495.59
2023-05-20T06:08:06.125Z,76475.31
2023-05-20T06:10:35.373Z,76451.00
2023-05-20T06:13:03.023Z,76438.84
2023-05-20T06:15:31.325Z,76451.00
2023-05-20T06:17:58.737Z,76438.84
2023-05-20T06:20:27.212Z,76442.91
2023-05-20T06:22:54.966Z,76418.56
2023-05-20T06:25:25.265Z,76402.34
2023-05-20T06:27:52.228Z,76378.03
2023-05-20T06:30:21.049Z,76363.84
2023-05-20T06:32:48.573Z,76345.59
2023-05-20T06:35:17.148Z,76341.53
2023-05-20T06:37:44.107Z,76331.41
2023-05-20T06:40:12.542Z,76305.06
2023-05-20T06:42:39.708Z,76305.06
2023-05-20T06:45:08.002Z,76309.13
2023-05-20T06:47:50.424Z,76317.22
2023-05-20T06:50:18.062Z,76325.31
2023-05-20T06:52:44.959Z,76325.31
2023-05-20T06:55:13.146Z,76321.28
2023-05-20T06:57:40.846Z,76329.38
2023-05-20T07:00:09.574Z,76335.47
2023-05-20T07:02:42.281Z,76345.59
2023-05-20T07:05:11.400Z,76341.53
2023-05-20T07:07:38.540Z,76349.66
2023-05-20T07:10:07.072Z,76345.59
2023-05-20T07:12:36.640Z,76349.66
2023-05-20T07:15:06.629Z,76349.66
2023-05-20T07:17:34.751Z,76349.66
2023-05-20T07:20:04.639Z,76353.72
2023-05-20T07:22:34.070Z,76339.50
2023-05-20T07:25:28.528Z,76337.50
2023-05-20T07:27:56.765Z,76321.28
2023-05-20T07:30:24.651Z,76309.13
2023-05-20T07:33:13.134Z,76301.00
2023-05-20T07:35:49.289Z,76284.78
2023-05-20T07:38:25.258Z,76278.72
2023-05-20T07:40:58.373Z,76268.56
2023-05-20T07:43:25.762Z,76256.41
2023-05-20T07:45:53.050Z,76248.31
2023-05-20T07:48:20.935Z,76238.16
2023-05-20T07:50:48.891Z,76228.03
2023-05-20T07:53:17.383Z,76203.72
2023-05-20T07:55:45.647Z,76175.34
2023-05-20T07:58:14.551Z,76161.16
2023-05-20T08:00:41.971Z,76167.22
2023-05-20T08:03:09.490Z,76163.19
2023-05-20T08:05:54.849Z,76171.28
2023-05-20T08:08:22.189Z,76167.22
2023-05-20T08:11:01.775Z,76159.13
2023-05-20T08:13:31.234Z,76153.03
2023-05-20T08:16:00.783Z,76149.00
2023-05-20T08:18:27.756Z,76134.78
2023-05-20T08:20:55.263Z,76118.59
2023-05-20T08:23:22.144Z,76110.47
2023-05-20T08:25:50.767Z,76096.28
2023-05-20T08:28:19.822Z,76084.13
2023-05-20T08:30:48.845Z,76074.00
2023-05-20T08:33:16.233Z,76065.88
2023-05-20T08:35:43.871Z,76053.72
2023-05-20T08:38:11.022Z,76045.63
2023-05-20T08:40:38.394Z,76025.34
2023-05-20T08:43:05.567Z,76005.09
2023-05-20T08:45:34.525Z,75988.88
2023-05-20T08:48:06.656Z,75978.75
2023-05-20T08:50:34.088Z,75956.44
2023-05-20T08:53:01.382Z,75932.13
2023-05-20T08:55:42.833Z,75924.00
2023-05-20T08:58:10.526Z,75901.72
2023-05-20T09:00:38.538Z,75883.47
2023-05-20T09:03:05.677Z,75857.13
2023-05-20T09:05:34.994Z,75842.94
2023-05-20T09:08:10.604Z,75824.72
2023-05-20T09:10:45.213Z,75806.47
2023-05-20T09:13:12.256Z,75796.34
2023-05-20T09:15:40.521Z,75761.88
2023-05-20T09:18:09.525Z,75767.97
2023-05-20T09:20:38.068Z,75745.66
2023-05-20T09:23:07.512Z,75743.66
2023-05-20T09:25:37.527Z,75745.66
2023-05-20T09:28:07.502Z,75761.88
2023-05-20T09:30:35.175Z,75778.09
2023-05-20T09:33:05.048Z,75778.09
2023-05-20T09:35:37.718Z,75759.84
2023-05-20T09:38:08.275Z,75711.22
2023-05-20T09:40:38.929Z,75701.09
2023-05-20T09:43:07.845Z,75692.97
2023-05-20T09:45:35.657Z,75678.78
2023-05-20T09:48:04.318Z,75656.50
2023-05-20T09:50:32.175Z,75656.50
2023-05-20T09:53:05.279Z,75664.59
2023-05-20T09:55:33.321Z,75656.50
2023-05-20T09:58:03.517Z,75636.22
2023-05-20T10:00:31.652Z,75632.19
2023-05-20T10:02:59.843Z,75624.06
2023-05-20T10:05:38.718Z,75607.88
2023-05-20T10:08:24.249Z,75630.16
2023-05-20T10:11:16.031Z,75628.13
2023-05-20T10:13:58.393Z,75611.91
2023-05-20T10:16:50.492Z,75591.66
2023-05-20T10:19:31.359Z,75583.53
2023-05-20T10:22:01.987Z,75591.66
2023-05-20T10:24:38.211Z,75595.69
2023-05-20T10:27:15.510Z,75603.81
2023-05-20T10:29:53.401Z,75615.97
2023-05-20T10:32:28.921Z,75615.97
2023-05-20T10:35:01.841Z,75615.97
2023-05-20T10:37:49.407Z,75603.81
2023-05-20T10:40:19.503Z,75579.50
2023-05-20T10:42:48.615Z,75563.28
2023-05-20T10:45:29.374Z,75551.13
2023-05-20T10:48:00.172Z,75563.28
2023-05-20T10:50:38.649Z,75555.19
2023-05-20T10:53:08.256Z,75553.16
2023-05-20T10:55:40.368Z,75543.00
2023-05-20T10:58:07.985Z,75534.91
2023-05-20T11:00:39.482Z,75534.91
2023-05-20T11:03:07.611Z,75532.88
2023-05-20T11:05:35.584Z,75530.84
2023-05-20T11:08:10.712Z,75543.00
2023-05-20T11:10:47.761Z,75541.00
2023-05-20T11:13:15.637Z,75530.84
2023-05-20T11:15:42.779Z,75502.50
2023-05-20T11:18:11.679Z,75474.13
2023-05-20T11:20:38.643Z,75478.16
2023-05-20T11:23:06.849Z,75476.16
2023-05-20T11:25:34.429Z,75449.81
2023-05-20T11:28:01.922Z,75470.06
2023-05-20T11:30:31.002Z,75451.81
2023-05-20T11:33:03.056Z,75455.88
2023-05-20T11:35:34.614Z,75466.00
2023-05-20T11:38:04.947Z,75480.19
2023-05-20T11:40:46.291Z,75514.66
2023-05-20T11:43:18.210Z,75522.75
2023-05-20T11:45:47.507Z,75522.75
2023-05-20T11:48:17.381Z,75522.75
2023-05-20T11:50:46.382Z,75518.69
2023-05-20T11:53:18.791Z,75522.75
2023-05-20T11:55:50.450Z,75522.75
2023-05-20T11:58:23.301Z,75502.50
2023-05-20T12:00:55.156Z,75445.75
2023-05-20T12:03:27.514Z,75421.44
2023-05-20T12:05:54.860Z,75409.28
2023-05-20T12:08:22.815Z,75409.28
2023-05-20T12:10:50.089Z,75386.97
2023-05-20T12:13:18.003Z,75397.13
2023-05-20T12:15:45.242Z,75405.22
2023-05-20T12:18:12.696Z,75401.16
2023-05-20T12:20:39.849Z,75378.88
2023-05-20T12:23:07.312Z,75360.63
2023-05-20T12:25:34.385Z,75346.44
2023-05-20T12:28:02.528Z,75356.59
2023-05-20T12:30:29.675Z,75352.53
2023-05-20T12:32:57.138Z,75328.22
2023-05-20T12:35:43.709Z,75332.28
2023-05-20T12:38:11.930Z,75352.53
2023-05-20T12:40:38.981Z,75338.34
2023-05-20T12:43:07.092Z,75352.53
2023-05-20T12:45:34.062Z,75352.53
2023-05-20T12:48:02.166Z,75326.19
2023-05-20T12:50:29.172Z,75344.44
2023-05-20T12:52:56.975Z,75320.13
2023-05-20T12:55:23.900Z,75305.94
2023-05-20T12:57:51.407Z,75316.06
2023-05-20T13:00:18.696Z,75318.09
2023-05-20T13:02:46.315Z,75307.94
2023-05-20T13:05:14.083Z,75303.91
2023-05-20T13:07:42.447Z,75301.88
2023-05-20T13:10:10.865Z,75287.69
2023-05-20T13:12:38.510Z,75303.91
2023-05-20T13:15:06.268Z,75293.78
2023-05-20T13:17:33.667Z,75263.38
2023-05-20T13:20:00.754Z,75265.41
2023-05-20T13:22:28.313Z,75277.56
2023-05-20T13:24:55.416Z,75356.59
2023-05-20T13:27:22.750Z,75389.00
2023-05-20T13:29:50.154Z,75409.28
2023-05-20T13:32:17.463Z,75427.50
2023-05-20T13:34:45.464Z,75425.47
2023-05-20T13:37:12.737Z,75445.75
2023-05-20T13:39:40.321Z,75445.75
2023-05-20T13:42:07.554Z,75429.53
2023-05-20T13:44:34.519Z,75405.22
2023-05-20T13:47:02.175Z,75393.06
2023-05-20T13:49:29.101Z,75380.91
2023-05-20T13:51:56.399Z,75368.75
2023-05-20T13:54:23.366Z,75344.44
2023-05-20T13:56:51.682Z,75316.06
2023-05-20T13:59:18.718Z,75283.63
2023-05-20T14:01:46.627Z,75247.16
2023-05-20T14:04:14.013Z,75230.94
2023-05-20T14:06:41.570Z,75218.78
2023-05-20T14:09:11.991Z,75210.69
2023-05-20T14:11:39.285Z,75210.69
2023-05-20T14:14:06.465Z,75210.69
2023-05-20T14:16:34.170Z,75214.75
2023-05-20T14:19:01.318Z,75212.72
2023-05-20T14:21:28.955Z,75206.63
2023-05-20T14:23:55.990Z,75190.44
2023-05-20T14:26:23.640Z,75166.09
2023-05-20T14:28:50.553Z,75153.94
2023-05-20T14:31:17.947Z,75141.78
2023-05-20T14:33:45.242Z,75149.91
2023-05-20T14:36:12.798Z,75145.84
2023-05-20T14:38:40.123Z,75162.06
2023-05-20T14:41:07.518Z,75139.78
2023-05-20T14:43:34.496Z,75107.34
2023-05-20T14:46:02.793Z,75036.44
2023-05-20T14:48:29.724Z,74886.50
2023-05-20T14:50:57.033Z,74704.16
2023-05-20T14:53:24.094Z,74493.47
2023-05-20T14:55:51.876Z,74424.59
2023-05-20T14:58:18.806Z,74254.41
2023-05-20T15:00:46.881Z,74138.94
2023-05-20T15:03:14.199Z,74094.38
2023-05-20T15:05:42.557Z,74021.47
2023-05-20T15:08:09.783Z,73954.63
2023-05-20T15:10:37.739Z,73881.69
2023-05-20T15:13:04.965Z,73891.84
2023-05-20T15:15:33.653Z,73954.63
2023-05-20T15:18:01.286Z,73950.56
2023-05-20T15:20:28.895Z,74149.09
2023-05-20T15:22:58.550Z,74343.56
2023-05-20T15:25:27.083Z,74538.03
2023-05-20T15:27:54.722Z,74659.59
2023-05-20T15:30:22.957Z,74546.13
2023-05-20T15:32:50.264Z,74371.91
2023-05-20T15:35:17.657Z,74222.00
2023-05-20T15:37:44.773Z,74181.50
2023-05-20T15:40:12.114Z,74169.34
2023-05-20T15:42:39.312Z,74335.44
2023-05-20T15:45:07.417Z,74497.50
2023-05-20T15:47:34.358Z,74696.06
2023-05-20T15:50:05.296Z,74809.50
2023-05-20T15:52:32.852Z,74716.31
2023-05-20T15:55:01.761Z,74692.00
2023-05-20T15:57:30.857Z,74679.84
2023-05-20T15:59:58.398Z,74667.69
2023-05-20T16:02:28.497Z,74655.53
2023-05-20T16:04:56.570Z,74692.00
2023-05-20T16:07:23.453Z,74748.72
2023-05-20T16:09:51.160Z,74785.19
2023-05-20T16:12:18.494Z,74821.66
2023-05-20T16:14:46.305Z,74813.56
2023-05-20T16:17:13.351Z,74825.72
2023-05-20T16:19:40.923Z,74850.03
2023-05-20T16:22:09.512Z,74910.81
2023-05-20T16:24:37.124Z,74898.66
2023-05-20T16:27:04.588Z,74914.88
2023-05-20T16:29:32.824Z,74951.34
2023-05-20T16:32:00.450Z,74999.97
2023-05-20T16:34:28.151Z,75052.66
2023-05-20T16:36:55.703Z,75097.22
2023-05-20T16:39:22.925Z,75095.19
2023-05-20T16:41:50.440Z,75083.03
2023-05-20T16:44:18.130Z,75119.50
2023-05-20T16:46:45.666Z,75141.78
2023-05-20T16:49:13.110Z,75174.22
2023-05-20T16:51:40.762Z,75202.59
2023-05-20T16:54:08.312Z,75226.91
2023-05-20T16:56:36.724Z,75275.53
2023-05-20T16:59:04.507Z,75316.06
2023-05-20T17:01:31.885Z,75344.44
2023-05-20T17:03:59.992Z,75382.94
2023-05-20T17:06:34.366Z,75413.31
2023-05-20T17:09:04.792Z,75425.47
2023-05-20T17:11:31.737Z,75449.81
2023-05-20T17:13:59.207Z,75453.84
2023-05-20T17:16:26.572Z,75457.91
2023-05-20T17:18:53.994Z,75470.06
2023-05-20T17:21:21.129Z,75486.28
2023-05-20T17:23:48.854Z,75508.56
2023-05-20T17:26:16.291Z,75520.72
2023-05-20T17:28:43.782Z,75534.91
2023-05-20T17:31:10.916Z,75547.06
2023-05-20T17:33:38.689Z,75559.22
2023-05-20T17:36:06.217Z,75563.28
2023-05-20T17:38:34.050Z,75571.38
2023-05-20T17:41:01.105Z,75581.53
2023-05-20T17:43:28.825Z,75591.66
2023-05-20T17:45:55.857Z,75603.81
2023-05-20T17:48:23.054Z,75624.06
2023-05-20T17:50:50.188Z,75630.16
2023-05-20T17:53:19.166Z,75644.34
2023-05-20T17:55:47.750Z,75652.44
2023-05-20T17:58:15.089Z,75662.59
2023-05-20T18:00:42.897Z,75672.72
2023-05-20T18:03:10.551Z,75680.81
2023-05-20T18:05:38.156Z,75692.97
2023-05-20T18:08:05.502Z,75701.09
2023-05-20T18:10:33.319Z,75711.22
2023-05-20T18:13:01.296Z,75721.34
2023-05-20T18:15:28.437Z,75733.50
2023-05-20T18:17:55.834Z,75741.63
2023-05-20T18:20:23.245Z,75757.81
2023-05-20T18:22:52.409Z,75778.09
2023-05-20T18:25:19.628Z,75786.19
2023-05-20T18:27:47.145Z,75798.38
2023-05-20T18:30:14.464Z,75810.53
2023-05-20T18:32:41.844Z,75814.56
2023-05-20T18:35:09.270Z,75826.72
2023-05-20T18:37:36.507Z,75836.88
2023-05-20T18:40:05.466Z,75847.00
2023-05-20T18:42:32.970Z,75851.06
2023-05-20T18:44:59.961Z,75863.22
2023-05-20T18:47:27.597Z,75875.38
2023-05-20T18:49:55.819Z,75887.53
2023-05-20T18:52:23.347Z,75899.69
2023-05-20T18:54:50.673Z,75905.78
2023-05-20T18:57:18.023Z,75911.84
2023-05-20T18:59:45.106Z,75915.91
2023-05-20T19:02:12.692Z,75928.06
2023-05-20T19:04:40.462Z,75926.03
2023-05-20T19:07:07.730Z,75936.19
2023-05-20T19:09:34.728Z,75936.19
2023-05-20T19:12:02.508Z,75952.38
2023-05-20T19:14:29.474Z,75956.44
2023-05-20T19:16:58.700Z,75966.56
2023-05-20T19:19:26.168Z,75968.59
2023-05-20T19:21:53.857Z,75980.75
2023-05-20T19:24:21.164Z,75988.88
2023-05-20T19:26:48.699Z,75992.94
2023-05-20T19:29:15.641Z,75990.91
2023-05-20T19:31:43.363Z,76001.03
2023-05-20T19:34:10.342Z,76005.09
2023-05-20T19:36:38.482Z,76019.28
2023-05-20T19:39:05.560Z,76023.31
2023-05-20T19:41:32.792Z,76029.41
2023-05-20T19:43:59.932Z,76033.47
2023-05-20T19:46:27.672Z,76041.56
2023-05-20T19:48:54.813Z,76049.69
2023-05-20T19:51:22.432Z,76061.84
2023-05-20T19:53:49.678Z,76061.84
2023-05-20T19:56:19.885Z,76065.88
2023-05-20T19:58:47.468Z,76076.03
2023-05-20T20:01:15.415Z,76092.25
2023-05-20T20:03:42.968Z,76102.38
2023-05-20T20:06:10.956Z,76106.41
2023-05-20T20:08:39.913Z,76108.44
2023-05-20T20:11:07.896Z,76122.63
2023-05-20T20:13:35.642Z,76114.53
2023-05-20T20:16:03.635Z,76120.63
2023-05-20T20:18:32.440Z,76124.66
2023-05-20T20:21:06.019Z,76134.78
2023-05-20T20:23:35.143Z,76142.91
2023-05-20T20:26:04.798Z,76142.91
2023-05-20T20:28:31.966Z,76153.03
2023-05-20T20:30:59.222Z,76159.13
2023-05-20T20:33:26.171Z,76163.19
2023-05-20T20:35:56.955Z,76169.25
2023-05-20T20:38:24.254Z,76175.34
2023-05-20T20:40:53.564Z,76175.34
2023-05-20T20:43:23.055Z,76183.44
2023-05-20T20:45:53.158Z,76193.56
2023-05-20T20:48:26.813Z,76201.69
2023-05-20T20:50:54.844Z,76207.78
2023-05-20T20:53:21.878Z,76211.81
2023-05-20T20:55:51.554Z,76217.91
2023-05-20T20:58:19.039Z,76226.00
2023-05-20T21:00:48.774Z,76223.97
2023-05-20T21:03:16.063Z,76230.06
2023-05-20T21:05:44.604Z,76236.16
2023-05-20T21:08:13.208Z,76244.25
2023-05-20T21:10:40.793Z,76244.25
2023-05-20T21:13:07.865Z,76244.25
2023-05-20T21:15:35.582Z,76252.34
2023-05-20T21:18:02.722Z,76260.47
2023-05-20T21:20:30.242Z,76262.50
2023-05-20T21:22:57.184Z,76276.69
2023-05-20T21:25:24.804Z,76288.84
2023-05-20T21:27:51.682Z,76284.78
2023-05-20T21:30:20.256Z,76292.91
2023-05-20T21:32:47.371Z,76296.94
2023-05-20T21:35:15.121Z,76301.00
2023-05-20T21:37:42.775Z,76309.13
2023-05-20T21:40:10.345Z,76317.22
2023-05-20T21:42:37.829Z,76321.28
2023-05-20T21:45:06.155Z,76325.31
2023-05-20T21:47:33.348Z,76325.31
2023-05-20T21:50:00.653Z,76333.44
2023-05-20T21:52:27.876Z,76349.66
2023-05-20T21:54:56.041Z,76361.81
2023-05-20T21:57:23.469Z,76363.84
2023-05-20T21:59:50.885Z,76357.75
2023-05-20T22:02:18.065Z,76361.81
2023-05-20T22:04:45.717Z,76365.88
2023-05-20T22:07:12.908Z,76369.91
2023-05-20T22:09:40.019Z,76373.97
2023-05-20T22:12:07.888Z,76380.06
2023-05-20T22:14:35.732Z,76386.13
2023-05-20T22:17:03.276Z,76386.13
2023-05-20T22:19:30.620Z,76394.25
2023-05-20T22:21:57.635Z,76394.25
2023-05-20T22:24:25.274Z,76402.34
2023-05-20T22:26:52.798Z,76414.50
2023-05-20T22:29:20.271Z,76414.50
2023-05-20T22:31:47.659Z,76416.53
2023-05-20T22:34:15.090Z,76410.47
2023-05-20T22:36:42.158Z,76414.50
2023-05-20T22:39:09.718Z,76418.56
2023-05-20T22:41:36.886Z,76422.63
2023-05-20T22:44:04.298Z,76428.69
2023-05-20T22:46:32.253Z,76430.72
2023-05-20T22:48:59.672Z,76434.78
2023-05-20T22:51:26.931Z,76434.78
2023-05-20T22:53:54.404Z,76442.91
2023-05-20T22:56:21.907Z,76440.88
2023-05-20T22:58:49.137Z,76442.91
2023-05-20T23:01:16.952Z,76451.00
2023-05-20T23:03:45.255Z,76455.06
2023-05-20T23:06:12.823Z,76463.16
2023-05-20T23:08:42.942Z,76463.16
2023-05-20T23:11:11.322Z,76467.22
2023-05-20T23:13:38.492Z,76467.22
2023-05-20T23:16:06.104Z,76471.28
2023-05-20T23:18:33.539Z,76467.22
2023-05-20T23:21:00.691Z,76467.22
2023-05-20T23:23:31.638Z,76471.28
2023-05-20T23:25:59.742Z,76467.22
2023-05-20T23:28:27.440Z,76475.31
2023-05-20T23:30:54.947Z,76473.28
2023-05-20T23:33:25.666Z,76487.50
2023-05-20T23:35:53.372Z,76483.44
2023-05-20T23:38:21.571Z,76479.38
2023-05-20T23:40:49.374Z,76483.44
2023-05-20T23:43:16.764Z,76483.44
2023-05-20T23:45:43.701Z,76483.44
2023-05-20T23:48:13.502Z,76489.50
2023-05-20T23:50:40.962Z,76495.59
2023-05-20T23:53:08.492Z,76497.63
2023-05-20T23:55:36.516Z,76495.59
2023-05-20T23:58:03.801Z,76497.63
